createdAt,value
2022-08-04T00:02:15.500Z,9.07
2022-08-04T00:04:55.190Z,8.47
2022-08-04T00:07:45.045Z,8.10
2022-08-04T00:10:15.349Z,10.00
2022-08-04T00:12:47.082Z,9.20
2022-08-04T00:15:16.723Z,10.10
2022-08-04T00:17:54.320Z,10.97
2022-08-04T00:20:21.636Z,9.57
2022-08-04T00:22:49.106Z,8.70
2022-08-04T00:25:15.662Z,9.63
2022-08-04T00:27:43.616Z,7.87
2022-08-04T00:30:10.838Z,11.60
2022-08-04T00:32:40.723Z,10.20
2022-08-04T00:35:09.701Z,9.30
2022-08-04T00:37:38.400Z,9.03
2022-08-04T00:40:19.141Z,9.13
2022-08-04T00:43:06.114Z,9.40
2022-08-04T00:46:14.955Z,9.10
2022-08-04T00:48:58.475Z,8.47
2022-08-04T00:52:31.736Z,7.53
2022-08-04T00:55:08.622Z,8.90
2022-08-04T00:57:58.883Z,9.30
2022-08-04T01:00:26.050Z,7.13
2022-08-04T01:02:59.999Z,8.87
2022-08-04T01:06:04.117Z,7.50
2022-08-04T01:08:49.506Z,9.47
2022-08-04T01:11:24.608Z,8.43
2022-08-04T01:14:17.227Z,9.77
2022-08-04T01:16:52.656Z,9.30
2022-08-04T01:19:36.947Z,9.90
2022-08-04T01:22:33.526Z,8.43
2022-08-04T01:25:45.041Z,9.30
2022-08-04T01:28:43.574Z,9.77
2022-08-04T01:31:25.900Z,8.70
2022-08-04T01:34:04.259Z,8.20
2022-08-04T01:36:34.844Z,10.70
2022-08-04T01:39:21.838Z,9.13
2022-08-04T01:41:57.981Z,8.37
2022-08-04T01:44:28.580Z,9.30
2022-08-04T01:46:55.283Z,9.70
2022-08-04T01:49:23.148Z,10.83
2022-08-04T01:51:52.210Z,8.23
2022-08-04T01:54:19.804Z,7.53
2022-08-04T01:56:49.304Z,7.67
2022-08-04T01:59:19.403Z,8.37
2022-08-04T02:01:46.344Z,8.87
2022-08-04T02:04:23.068Z,7.50
2022-08-04T02:07:25.501Z,7.10
2022-08-04T02:10:03.736Z,7.60
2022-08-04T02:12:39.795Z,10.87
2022-08-04T02:15:12.091Z,10.07
2022-08-04T02:17:57.242Z,11.20
2022-08-04T02:20:37.124Z,8.87
2022-08-04T02:23:07.843Z,8.10
2022-08-04T02:25:45.786Z,8.73
2022-08-04T02:28:15.114Z,9.00
2022-08-04T02:31:15.912Z,9.20
2022-08-04T02:33:44.624Z,8.40
2022-08-04T02:36:21.245Z,7.00
2022-08-04T02:38:57.884Z,8.20
2022-08-04T02:41:26.925Z,8.13
2022-08-04T02:43:57.568Z,9.27
2022-08-04T02:46:25.179Z,9.80
2022-08-04T02:48:53.417Z,12.23
2022-08-04T02:51:23.360Z,16.17
2022-08-04T02:53:53.637Z,9.30
2022-08-04T02:56:21.572Z,9.27
2022-08-04T02:59:03.179Z,9.40
2022-08-04T03:01:30.623Z,7.57
2022-08-04T03:04:16.199Z,7.67
2022-08-04T03:07:25.489Z,8.77
2022-08-04T03:10:07.190Z,7.13
2022-08-04T03:13:12.827Z,8.60
2022-08-04T03:15:59.970Z,7.27
2022-08-04T03:18:50.943Z,9.40
2022-08-04T03:21:47.522Z,8.03
2022-08-04T03:24:25.392Z,7.17
2022-08-04T03:27:12.027Z,8.50
2022-08-04T03:30:03.572Z,11.70
2022-08-04T03:33:07.118Z,6.03
2022-08-04T03:35:48.470Z,8.00
2022-08-04T03:38:29.100Z,8.13
2022-08-04T03:41:10.859Z,6.97
2022-08-04T03:43:58.742Z,7.93
2022-08-04T03:47:00.247Z,9.83
2022-08-04T03:49:53.733Z,6.57
2022-08-04T03:53:09.981Z,20.37
2022-08-04T03:56:06.487Z,32.63
2022-08-04T03:58:53.989Z,10.80
2022-08-04T04:02:02.859Z,8.70
2022-08-04T04:04:51.899Z,8.93
2022-08-04T04:07:27.213Z,9.53
2022-08-04T04:10:28.708Z,8.40
2022-08-04T04:13:10.688Z,13.07
2022-08-04T04:15:50.194Z,7.80
2022-08-04T04:18:45.551Z,7.60
2022-08-04T04:21:38.761Z,15.57
2022-08-04T04:24:24.319Z,6.67
2022-08-04T04:27:18.206Z,8.83
2022-08-04T04:30:06.573Z,10.10
2022-08-04T04:32:59.775Z,7.07
2022-08-04T04:35:38.011Z,8.40
2022-08-04T04:38:30.759Z,9.57
2022-08-04T04:41:06.641Z,9.03
2022-08-04T04:44:03.235Z,7.03
2022-08-04T04:46:37.802Z,8.67
2022-08-04T04:49:28.875Z,10.77
2022-08-04T04:52:04.155Z,10.63
2022-08-04T04:54:39.763Z,9.83
2022-08-04T04:57:18.144Z,9.70
2022-08-04T04:59:51.943Z,12.53
2022-08-04T05:02:37.126Z,12.20
2022-08-04T05:05:41.062Z,10.60
2022-08-04T05:08:42.719Z,10.83
2022-08-04T05:11:36.779Z,11.10
2022-08-04T05:14:37.449Z,8.40
2022-08-04T05:17:04.457Z,14.60
2022-08-04T05:20:38.974Z,12.57
2022-08-04T05:23:19.510Z,11.40
2022-08-04T05:26:10.190Z,10.33
2022-08-04T05:28:41.167Z,8.70
2022-08-04T05:31:13.903Z,10.83
2022-08-04T05:33:47.180Z,10.13
2022-08-04T05:36:39.521Z,9.77
2022-08-04T05:39:08.595Z,8.73
2022-08-04T05:41:45.140Z,7.17
2022-08-04T05:44:14.979Z,10.80
2022-08-04T05:46:43.450Z,8.57
2022-08-04T05:49:11.288Z,7.20
2022-08-04T05:51:46.106Z,10.83
2022-08-04T05:54:13.771Z,7.40
2022-08-04T05:56:42.807Z,10.03
2022-08-04T05:59:11.238Z,7.57
2022-08-04T06:01:56.284Z,6.43
2022-08-04T06:04:37.364Z,9.40
2022-08-04T06:07:04.610Z,15.80
2022-08-04T06:09:31.671Z,6.70
2022-08-04T06:12:04.439Z,8.97
2022-08-04T06:14:39.552Z,8.17
2022-08-04T06:18:32.738Z,7.37
2022-08-04T06:19:58.983Z,9.87
2022-08-04T06:22:33.942Z,9.10
2022-08-04T06:25:02.782Z,9.63
2022-08-04T06:27:31.608Z,8.40
2022-08-04T06:29:59.829Z,9.90
2022-08-04T06:32:41.308Z,12.20
2022-08-04T06:35:09.563Z,8.67
2022-08-04T06:37:42.191Z,7.80
2022-08-04T06:40:30.665Z,10.40
2022-08-04T06:42:59.572Z,14.07
2022-08-04T06:45:26.839Z,5.40
2022-08-04T06:47:54.606Z,7.10
2022-08-04T06:51:32.267Z,4.22
2022-08-04T06:53:09.120Z,5.82
2022-08-04T06:55:38.304Z,4.18
2022-08-04T06:58:06.237Z,6.85
2022-08-04T07:00:34.548Z,5.43
2022-08-04T07:03:02.260Z,4.78
2022-08-04T07:05:29.120Z,4.85
2022-08-04T07:07:56.977Z,5.97
2022-08-04T07:10:27.636Z,4.38
2022-08-04T07:12:56.216Z,3.20
2022-08-04T07:15:24.965Z,4.13
2022-08-04T07:17:52.582Z,5.65
2022-08-04T07:20:34.722Z,4.28
2022-08-04T07:23:06.607Z,6.72
2022-08-04T07:25:58.566Z,5.90
2022-08-04T07:28:26.039Z,7.40
2022-08-04T07:30:54.029Z,6.40
2022-08-04T07:33:21.074Z,3.35
2022-08-04T07:36:10.583Z,4.88
2022-08-04T07:38:48.581Z,5.35
2022-08-04T07:41:38.719Z,3.78
2022-08-04T07:44:06.735Z,7.25
2022-08-04T07:46:33.252Z,3.80
2022-08-04T07:49:01.244Z,4.95
2022-08-04T07:51:30.534Z,4.40
2022-08-04T07:53:58.462Z,3.47
2022-08-04T07:56:26.666Z,6.65
2022-08-04T07:58:53.287Z,5.03
2022-08-04T08:01:20.154Z,4.45
2022-08-04T08:03:48.368Z,4.00
2022-08-04T08:06:30.781Z,9.10
2022-08-04T08:09:12.479Z,6.93
2022-08-04T08:12:38.719Z,4.28
2022-08-04T08:14:30.680Z,5.47
2022-08-04T08:17:00.226Z,6.70
2022-08-04T08:19:26.771Z,5.50
2022-08-04T08:21:58.922Z,5.72
2022-08-04T08:24:28.705Z,6.10
2022-08-04T08:26:56.802Z,5.82
2022-08-04T08:29:25.799Z,3.72
2022-08-04T08:31:57.506Z,3.28
2022-08-04T08:34:27.898Z,4.28
2022-08-04T08:37:03.938Z,4.22
2022-08-04T08:39:42.701Z,5.50
2022-08-04T08:42:46.524Z,5.97
2022-08-04T08:46:10.115Z,5.03
2022-08-04T08:49:13.993Z,5.93
2022-08-04T08:53:01.739Z,6.60
2022-08-04T08:55:30.573Z,3.75
2022-08-04T08:58:06.486Z,9.15
2022-08-04T09:00:45.533Z,4.68
2022-08-04T09:03:36.782Z,4.03
2022-08-04T09:06:18.987Z,4.38
2022-08-04T09:09:12.482Z,3.72
2022-08-04T09:12:25.712Z,3.95
2022-08-04T09:15:07.979Z,5.68
2022-08-04T09:17:45.467Z,3.00
2022-08-04T09:20:25.132Z,3.15
2022-08-04T09:23:17.198Z,4.32
2022-08-04T09:25:49.559Z,3.83
2022-08-04T09:28:53.915Z,3.58
2022-08-04T09:31:24.466Z,5.88
2022-08-04T09:34:04.516Z,7.43
2022-08-04T09:36:51.496Z,7.60
2022-08-04T09:39:43.065Z,4.43
2022-08-04T09:42:29.272Z,5.45
2022-08-04T09:45:07.434Z,3.70
2022-08-04T09:47:49.233Z,4.43
2022-08-04T09:50:35.004Z,4.53
2022-08-04T09:53:26.382Z,2.95
2022-08-04T09:56:03.835Z,4.18
2022-08-04T09:58:45.361Z,3.30
2022-08-04T10:01:19.873Z,7.22
2022-08-04T10:03:52.113Z,7.38
2022-08-04T10:06:35.790Z,4.45
2022-08-04T10:09:27.003Z,3.97
2022-08-04T10:12:24.441Z,8.52
2022-08-04T10:15:25.347Z,2.85
2022-08-04T10:18:11.708Z,2.80
2022-08-04T10:21:15.676Z,6.47
2022-08-04T10:24:03.302Z,4.30
2022-08-04T10:27:21.237Z,2.95
2022-08-04T10:29:48.197Z,5.47
2022-08-04T10:32:25.345Z,2.28
2022-08-04T10:35:02.599Z,3.20
2022-08-04T10:38:00.015Z,3.22
2022-08-04T10:40:40.472Z,3.83
2022-08-04T10:43:36.041Z,4.97
2022-08-04T10:46:09.461Z,5.60
2022-08-04T10:48:51.620Z,3.75
2022-08-04T10:51:58.489Z,3.35
2022-08-04T10:54:51.668Z,3.75
2022-08-04T10:57:24.154Z,3.40
2022-08-04T11:00:03.922Z,3.83
2022-08-04T11:02:55.713Z,5.15
2022-08-04T11:05:43.863Z,2.67
2022-08-04T11:08:21.825Z,2.60
2022-08-04T11:11:25.952Z,4.78
2022-08-04T11:13:58.933Z,5.18
2022-08-04T11:16:37.287Z,4.20
2022-08-04T11:19:43.079Z,5.60
2022-08-04T11:22:22.559Z,3.60
2022-08-04T11:25:11.963Z,2.75
2022-08-04T11:27:56.629Z,3.30
2022-08-04T11:30:30.562Z,3.65
2022-08-04T11:33:27.253Z,3.20
2022-08-04T11:36:45.058Z,2.45
2022-08-04T11:39:35.026Z,4.78
2022-08-04T11:42:19.764Z,6.07
2022-08-04T11:45:07.732Z,3.95
2022-08-04T11:48:01.116Z,2.72
2022-08-04T11:50:38.466Z,2.60
2022-08-04T11:53:06.968Z,3.63
2022-08-04T11:56:08.036Z,3.05
2022-08-04T11:58:21.717Z,2.90
2022-08-04T12:01:07.299Z,2.40
2022-08-04T12:03:59.785Z,3.88
2022-08-04T12:06:42.521Z,3.53
2022-08-04T12:09:59.662Z,3.80
2022-08-04T12:12:38.872Z,3.42
2022-08-04T12:15:22.164Z,3.10
2022-08-04T12:18:03.563Z,2.33
2022-08-04T12:20:40.762Z,3.35
2022-08-04T12:23:15.499Z,6.10
2022-08-04T12:25:47.621Z,3.92
2022-08-04T12:28:26.097Z,3.17
2022-08-04T12:31:11.285Z,3.92
2022-08-04T12:34:04.151Z,4.15
2022-08-04T12:37:23.100Z,5.20
2022-08-04T12:40:28.831Z,3.05
2022-08-04T12:42:56.419Z,3.67
2022-08-04T12:45:27.167Z,3.33
2022-08-04T12:47:57.954Z,3.78
2022-08-04T12:50:25.083Z,3.83
2022-08-04T12:53:02.175Z,3.50
2022-08-04T12:55:31.804Z,3.53
2022-08-04T12:58:00.117Z,2.13
2022-08-04T13:00:40.837Z,4.82
2022-08-04T13:03:14.274Z,4.22
2022-08-04T13:05:42.199Z,3.08
2022-08-04T13:08:10.880Z,3.33
2022-08-04T13:10:39.778Z,3.80
2022-08-04T13:13:13.544Z,4.05
2022-08-04T13:15:47.185Z,2.33
2022-08-04T13:18:29.311Z,1.80
2022-08-04T13:21:08.621Z,3.45
2022-08-04T13:24:09.819Z,3.67
2022-08-04T13:26:44.987Z,4.35
2022-08-04T13:29:21.993Z,9.32
2022-08-04T13:34:34.976Z,4.10
2022-08-04T13:37:05.355Z,3.28
2022-08-04T13:39:33.009Z,2.95
2022-08-04T13:42:04.240Z,4.50
2022-08-04T13:44:34.174Z,2.17
2022-08-04T13:47:14.776Z,5.68
2022-08-04T13:50:00.795Z,1.95
2022-08-04T13:52:27.922Z,2.92
2022-08-04T13:54:54.372Z,2.65
2022-08-04T13:57:30.207Z,1.77
2022-08-04T14:00:01.408Z,2.10
2022-08-04T14:02:45.887Z,2.60
2022-08-04T14:05:27.081Z,2.20
2022-08-04T14:07:57.971Z,3.35
2022-08-04T14:10:24.821Z,3.70
2022-08-04T14:12:52.692Z,4.63
2022-08-04T14:16:01.721Z,2.80
2022-08-04T14:18:29.896Z,2.33
2022-08-04T14:21:05.594Z,2.50
2022-08-04T14:23:47.469Z,2.30
2022-08-04T14:26:15.343Z,2.75
2022-08-04T14:29:25.168Z,1.65
2022-08-04T14:31:31.034Z,2.50
2022-08-04T14:34:04.489Z,2.97
2022-08-04T14:36:56.066Z,4.88
2022-08-04T14:40:19.294Z,3.42
2022-08-04T14:42:55.376Z,3.55
2022-08-04T14:45:54.151Z,4.38
2022-08-04T14:48:21.834Z,4.00
2022-08-04T14:50:49.870Z,3.45
2022-08-04T14:53:21.890Z,4.78
2022-08-04T14:55:54.540Z,5.63
2022-08-04T14:58:36.457Z,2.55
2022-08-04T15:01:10.524Z,4.60
2022-08-04T15:03:51.019Z,2.72
2022-08-04T15:06:22.525Z,11.68
2022-08-04T15:08:51.134Z,2.78
2022-08-04T15:11:23.114Z,5.50
2022-08-04T15:13:50.177Z,3.08
2022-08-04T15:16:16.574Z,2.83
2022-08-04T15:18:42.985Z,3.35
2022-08-04T15:21:15.918Z,2.58
2022-08-04T15:23:42.323Z,2.10
2022-08-04T15:26:15.902Z,3.47
2022-08-04T15:28:54.639Z,3.20
2022-08-04T15:32:06.395Z,2.17
2022-08-04T15:34:10.416Z,2.28
2022-08-04T15:36:57.110Z,2.88
2022-08-04T15:39:49.923Z,4.28
2022-08-04T16:08:10.655Z,4.10
2022-08-04T16:39:49.656Z,2.85
2022-08-04T16:42:32.171Z,2.45
2022-08-04T16:45:11.498Z,1.90
2022-08-04T16:47:49.762Z,2.85
2022-08-04T16:50:20.437Z,3.88
2022-08-04T16:52:49.055Z,2.55
2022-08-04T16:55:19.513Z,3.20
2022-08-04T17:59:52.344Z,2.10
2022-08-04T18:02:33.166Z,3.92
2022-08-04T18:05:07.335Z,3.53
2022-08-04T18:13:25.912Z,4.40
2022-08-04T18:16:04.292Z,3.20
2022-08-04T18:18:31.014Z,3.90
2022-08-04T18:20:59.721Z,8.38
2022-08-04T18:23:31.780Z,5.65
2022-08-04T18:26:02.323Z,3.25
2022-08-04T18:28:30.735Z,4.97
2022-08-04T18:30:59.517Z,5.93
2022-08-04T18:33:40.485Z,4.97
2022-08-04T18:36:34.098Z,5.50
2022-08-04T18:38:58.681Z,4.30
2022-08-04T18:41:27.218Z,3.83
2022-08-04T18:49:10.138Z,4.65
2022-08-04T18:51:57.150Z,4.00
2022-08-04T18:54:28.396Z,8.40
2022-08-04T18:57:32.084Z,3.20
2022-08-04T18:59:46.429Z,5.63
2022-08-04T19:02:16.861Z,6.22
2022-08-04T19:04:44.941Z,6.50
2022-08-04T19:07:29.319Z,4.57
2022-08-04T19:09:59.716Z,4.30
2022-08-04T19:12:28.160Z,3.70
2022-08-04T19:14:57.978Z,7.72
2022-08-04T19:17:54.118Z,9.55
2022-08-04T19:20:15.937Z,12.98
2022-08-04T19:24:11.358Z,25.05
2022-08-04T19:25:41.538Z,16.65
2022-08-04T19:28:28.145Z,18.13
2022-08-04T19:30:58.790Z,11.23
2022-08-04T19:33:25.585Z,16.38
2022-08-04T19:35:56.620Z,21.33
2022-08-04T19:38:23.689Z,8.57
2022-08-04T19:40:52.863Z,5.55
2022-08-04T19:43:20.877Z,5.70
2022-08-04T19:45:49.659Z,6.07
2022-08-04T19:48:19.826Z,35.88
2022-08-04T19:50:47.357Z,28.77
2022-08-04T19:53:19.355Z,11.55
2022-08-04T19:55:49.964Z,14.85
2022-08-04T19:58:18.078Z,6.68
2022-08-04T20:00:51.367Z,5.25
2022-08-04T20:03:20.457Z,6.03
2022-08-04T20:08:35.975Z,24.10
2022-08-04T20:11:03.435Z,19.55
2022-08-04T20:13:37.094Z,22.25
2022-08-04T20:16:29.009Z,19.00
2022-08-04T20:19:01.018Z,16.25
2022-08-04T20:21:36.569Z,10.10
2022-08-04T20:24:36.464Z,8.70
2022-08-04T20:27:09.041Z,8.52
2022-08-04T20:29:40.781Z,4.88
2022-08-04T20:32:10.354Z,6.28
2022-08-04T20:34:40.179Z,8.45
2022-08-04T20:37:10.024Z,4.90
2022-08-04T20:39:37.972Z,4.63
2022-08-04T20:42:05.346Z,8.60
2022-08-04T20:44:33.459Z,6.72
2022-08-04T20:47:00.659Z,5.50
2022-08-04T20:49:34.883Z,4.15
2022-08-04T20:52:13.251Z,6.10
2022-08-04T20:54:41.562Z,5.60
2022-08-04T20:57:08.821Z,8.20
2022-08-04T20:59:36.275Z,7.68
2022-08-04T21:02:06.348Z,7.10
2022-08-04T21:04:46.313Z,8.45
2022-08-04T21:07:16.708Z,7.50
2022-08-04T21:09:50.064Z,12.63
2022-08-04T21:12:27.362Z,13.32
2022-08-04T21:17:57.725Z,8.60
2022-08-04T21:20:30.195Z,11.02
2022-08-04T21:23:01.555Z,8.98
2022-08-04T21:25:28.658Z,7.07
2022-08-04T21:27:58.886Z,8.32
2022-08-04T21:30:30.658Z,10.18
2022-08-04T21:32:57.319Z,8.10
2022-08-04T21:35:30.086Z,6.35
2022-08-04T21:38:17.453Z,11.10
2022-08-04T21:41:01.420Z,8.70
2022-08-04T21:43:42.481Z,10.43
2022-08-04T21:46:10.408Z,8.45
2022-08-04T21:48:39.209Z,9.52
2022-08-04T21:51:56.919Z,8.82
2022-08-04T21:54:08.734Z,6.63
2022-08-04T21:56:41.380Z,5.25
2022-08-04T21:59:17.393Z,6.47
2022-08-04T22:01:54.849Z,4.85
2022-08-04T22:04:21.809Z,4.80
2022-08-04T22:06:51.635Z,6.00
2022-08-04T22:09:19.004Z,5.35
2022-08-04T22:11:50.728Z,4.15
2022-08-04T22:14:27.177Z,5.32
2022-08-04T22:16:56.597Z,5.82
2022-08-04T22:19:27.424Z,10.05
2022-08-04T22:22:09.547Z,4.63
2022-08-04T22:24:40.132Z,6.30
2022-08-04T22:27:11.709Z,4.70
2022-08-04T22:29:39.392Z,5.13
2022-08-04T22:32:11.513Z,7.78
2022-08-04T22:34:45.616Z,6.38
2022-08-04T22:37:19.930Z,5.18
2022-08-04T22:40:03.576Z,4.70
2022-08-04T22:42:31.676Z,6.78
2022-08-04T22:44:58.485Z,7.40
2022-08-04T22:47:26.063Z,4.78
2022-08-04T22:50:13.548Z,4.20
2022-08-04T22:52:56.007Z,6.53
2022-08-04T22:55:23.107Z,4.20
2022-08-04T22:58:04.907Z,5.00
2022-08-04T23:00:32.696Z,4.22
2022-08-04T23:02:59.562Z,6.38
2022-08-04T23:05:35.563Z,5.65
2022-08-04T23:08:04.166Z,9.02
2022-08-04T23:10:33.080Z,6.10
2022-08-04T23:13:04.167Z,6.10
2022-08-04T23:15:33.651Z,4.72
2022-08-04T23:18:00.901Z,6.75
2022-08-04T23:20:33.095Z,4.50
2022-08-04T23:23:14.816Z,4.30
2022-08-04T23:26:07.486Z,5.63
2022-08-04T23:28:31.243Z,4.68
2022-08-04T23:30:57.675Z,4.35
2022-08-04T23:33:24.581Z,5.75
2022-08-04T23:36:11.944Z,4.28
2022-08-04T23:38:39.247Z,7.35
2022-08-04T23:41:13.444Z,6.82
2022-08-04T23:43:55.354Z,7.72
2022-08-04T23:46:22.757Z,6.60
2022-08-04T23:48:49.541Z,7.03
2022-08-04T23:51:16.346Z,9.63
2022-08-04T23:54:01.564Z,9.10
2022-08-04T23:56:29.716Z,12.48
2022-08-04T23:58:56.169Z,9.32
